Time;durP1;ratioP1;P1;durP2;ratioP2;P2;SDS_P1;SDS_P2;PMS_P1;PMS_P2;Temp;Humidity;BMP_temperature;BMP_pressure;BME280_temperature;BME280_humidity;BME280_pressure;Samples;Min_cycle;Max_cycle;Signal;HPM_P1;HPM_P2
2024/03/03 00:01:57;;;;;;;2.67;1.80;;;;;;;13.19;81.20;99717.41;5291728;28;20115;-74
2024/03/03 00:04:29;;;;;;;2.55;1.60;;;;;;;13.19;80.96;99712.94;5292154;28;20036;-74
2024/03/03 00:07:01;;;;;;;2.67;1.48;;;;;;;13.20;80.47;99708.50;5289466;28;20024;-74
2024/03/03 00:09:33;;;;;;;2.20;1.58;;;;;;;13.19;80.79;99709.50;5289684;28;20032;-74
2024/03/03 00:12:05;;;;;;;2.05;1.50;;;;;;;13.10;82.87;99717.41;5290279;28;20068;-74
2024/03/03 00:14:37;;;;;;;2.70;1.73;;;;;;;13.13;81.80;99724.16;5288236;28;20033;-74
2024/03/03 00:17:09;;;;;;;2.70;1.63;;;;;;;13.12;80.99;99725.16;5290074;28;20113;-74
2024/03/03 00:19:41;;;;;;;2.50;1.50;;;;;;;13.12;81.89;99714.63;5291552;28;20028;-74
2024/03/03 00:22:13;;;;;;;2.83;1.85;;;;;;;13.15;80.80;99723.00;5288830;28;20044;-74
2024/03/03 00:24:45;;;;;;;2.33;1.40;;;;;;;13.18;81.82;99724.44;5287709;28;20032;-74
2024/03/03 00:27:17;;;;;;;3.33;1.55;;;;;;;13.15;81.95;99723.00;5288293;28;20086;-74
2024/03/03 00:29:48;;;;;;;2.55;1.60;;;;;;;13.11;82.72;99732.22;5289047;28;20073;-74
2024/03/03 00:32:20;;;;;;;2.50;1.60;;;;;;;13.11;80.61;99728.78;5288176;28;20050;-74
2024/03/03 00:34:52;;;;;;;3.58;1.63;;;;;;;13.01;79.89;99704.53;5287540;28;20032;-74
2024/03/03 00:37:24;;;;;;;2.53;1.70;;;;;;;13.12;80.61;99733.84;5284810;28;20024;-74
2024/03/03 00:39:56;;;;;;;2.47;1.60;;;;;;;13.11;80.81;99734.84;5288465;28;20027;-74
2024/03/03 00:42:28;;;;;;;2.83;1.60;;;;;;;13.15;80.17;99730.88;5288276;28;20042;-74
2024/03/03 00:45:00;;;;;;;3.40;1.77;;;;;;;13.15;80.58;99725.63;5287029;28;20577;-74
2024/03/03 00:47:32;;;;;;;3.95;1.58;;;;;;;13.17;81.69;99730.69;5284803;28;20040;-74
2024/03/03 00:50:05;;;;;;;2.80;1.80;;;;;;;13.11;80.95;99728.78;5288743;28;20034;-74
2024/03/03 00:52:36;;;;;;;3.95;1.73;;;;;;;13.12;81.84;99725.97;5287901;28;20043;-74
2024/03/03 00:55:09;;;;;;;2.50;1.73;;;;;;;13.11;80.79;99726.16;5287343;28;20552;-74
2024/03/03 00:57:41;;;;;;;4.13;1.75;;;;;;;13.15;80.46;99724.81;5286753;28;20051;-73
2024/03/03 01:00:13;;;;;;;2.83;1.77;;;;;;;13.15;80.76;99727.44;5287513;28;20042;-74
2024/03/03 01:02:45;;;;;;;2.58;1.73;;;;;;;13.13;81.46;99724.16;5287746;28;20039;-74
2024/03/03 01:05:17;;;;;;;2.53;1.70;;;;;;;13.10;81.79;99721.88;5285500;28;20415;-74
2024/03/03 01:07:49;;;;;;;3.40;2.25;;;;;;;13.04;83.46;99727.84;5284728;28;20094;-74
2024/03/03 01:10:21;;;;;;;2.92;1.83;;;;;;;13.08;81.28;99726.50;5285096;28;20086;-74
2024/03/03 01:12:53;;;;;;;2.45;1.65;;;;;;;12.93;83.67;99722.97;5289697;28;20047;-74
2024/03/03 01:15:25;;;;;;;2.50;1.70;;;;;;;12.96;83.19;99722.63;5285888;28;20028;-74
2024/03/03 01:17:57;;;;;;;3.13;1.95;;;;;;;12.86;84.57;99715.75;5286744;28;20036;-74
2024/03/03 01:20:29;;;;;;;2.10;1.63;;;;;;;12.84;84.64;99717.75;5287936;28;20794;-74
2024/03/03 01:23:01;;;;;;;2.63;1.90;;;;;;;12.87;84.35;99730.53;5285794;28;20119;-74
2024/03/03 01:25:32;;;;;;;2.65;1.77;;;;;;;12.82;84.57;99724.16;5266708;28;20066;-74
2024/03/03 01:28:04;;;;;;;4.32;2.10;;;;;;;12.83;84.96;99724.00;5285703;28;20039;-74
2024/03/03 01:30:36;;;;;;;3.00;2.05;;;;;;;12.83;84.98;99726.63;5286555;28;20038;-74
2024/03/03 01:33:08;;;;;;;3.63;2.38;;;;;;;12.85;84.90;99724.66;5287133;28;20036;-74
2024/03/03 01:35:40;;;;;;;2.83;1.88;;;;;;;12.78;86.00;99723.69;5283672;28;20482;-74
2024/03/03 01:38:12;;;;;;;2.80;1.88;;;;;;;12.70;85.53;99701.91;5286735;28;20028;-74
2024/03/03 01:40:50;;;;;;;2.75;2.03;;;;;;;12.90;85.39;99716.25;5287611;28;20060;-73
2024/03/03 01:43:22;;;;;;;3.53;2.13;;;;;;;12.77;85.65;99711.56;5284364;28;20028;-74
2024/03/03 01:45:54;;;;;;;4.38;2.17;;;;;;;12.73;85.94;99710.25;5288456;28;20032;-74
2024/03/03 01:48:26;;;;;;;4.00;2.45;;;;;;;12.77;85.00;99716.00;5286879;28;20054;-74
2024/03/03 01:50:59;;;;;;;2.58;1.92;;;;;;;12.70;86.49;99709.78;5284066;28;20038;-74
2024/03/03 01:53:32;;;;;;;3.85;1.90;;;;;;;12.72;86.23;99716.47;5285230;28;20047;-74
2024/03/03 01:56:04;;;;;;;2.08;1.63;;;;;;;12.68;86.94;99704.69;5283577;28;20027;-74
2024/03/03 01:58:39;;;;;;;3.53;2.03;;;;;;;12.73;87.08;99718.16;5283043;28;20032;-74
2024/03/03 02:01:12;;;;;;;4.00;1.98;;;;;;;12.64;87.19;99711.28;5284067;28;20458;-74
2024/03/03 02:03:44;;;;;;;2.97;2.35;;;;;;;12.63;87.38;99714.91;5287127;28;20032;-74
2024/03/03 02:06:19;;;;;;;4.00;1.90;;;;;;;12.44;87.45;99700.34;5285323;28;20058;-74
2024/03/03 02:08:51;;;;;;;3.28;2.20;;;;;;;12.45;88.80;99704.63;5284171;28;20833;-74
2024/03/03 02:11:23;;;;;;;2.85;2.00;;;;;;;12.45;89.28;99709.06;5287221;28;20093;-74
2024/03/03 02:13:55;;;;;;;2.50;1.98;;;;;;;12.46;88.92;99702.81;5286919;28;20385;-74
2024/03/03 02:16:27;;;;;;;2.78;2.15;;;;;;;12.41;89.93;99706.75;5287178;28;20485;-74
2024/03/03 02:18:59;;;;;;;3.17;2.00;;;;;;;12.44;90.09;99704.78;5283443;28;20024;-74
2024/03/03 02:21:31;;;;;;;3.00;2.20;;;;;;;12.31;89.87;99690.41;5285776;28;20075;-74
2024/03/03 02:24:03;;;;;;;3.95;2.20;;;;;;;12.44;90.39;99708.25;5287247;28;20039;-74
2024/03/03 02:26:36;;;;;;;3.40;2.20;;;;;;;12.42;90.25;99710.19;5285510;28;20044;-73
2024/03/03 02:29:09;;;;;;;;;;;;;;;13.11;85.94;99703.31;5286056;28;20028;-74
2024/03/03 02:31:41;;;;;;;2.47;2.00;;;;;;;12.44;90.83;99703.00;5287405;28;19927;-73
2024/03/03 02:34:13;;;;;;;4.97;2.45;;;;;;;12.37;92.17;99700.22;5285838;28;20031;-74
2024/03/03 02:36:44;;;;;;;3.45;2.22;;;;;;;12.34;91.12;99708.44;5285310;28;20071;-74
2024/03/03 02:39:16;;;;;;;3.63;2.30;;;;;;;12.32;92.14;99705.16;5287129;28;20028;-74
2024/03/03 02:41:48;;;;;;;4.85;2.28;;;;;;;12.31;93.20;99714.03;5283097;28;20043;-74
2024/03/03 02:44:22;;;;;;;3.28;2.30;;;;;;;12.34;92.64;99710.22;5286414;28;20491;-74
2024/03/03 02:46:54;;;;;;;4.13;2.50;;;;;;;12.34;90.90;99713.69;5284697;28;20047;-74
2024/03/03 02:49:25;;;;;;;4.13;2.63;;;;;;;12.32;91.59;99715.66;5285709;28;20032;-74
2024/03/03 02:51:58;;;;;;;5.50;2.58;;;;;;;12.33;91.19;99709.41;5285314;28;20035;-74
2024/03/03 02:54:29;;;;;;;3.72;2.63;;;;;;;12.34;89.92;99712.88;5285287;28;20397;-74
2024/03/03 02:57:01;;;;;;;3.45;2.38;;;;;;;12.31;90.86;99723.69;5282925;28;20054;-74
2024/03/03 02:59:34;;;;;;;4.68;2.80;;;;;;;12.35;89.38;99711.88;5281929;28;20032;-73
2024/03/03 03:02:06;;;;;;;4.70;2.63;;;;;;;12.28;90.58;99713.56;5284025;28;20397;-74
2024/03/03 03:04:38;;;;;;;4.20;2.20;;;;;;;12.29;89.23;99717.81;5283724;28;20036;-74
2024/03/03 03:07:09;;;;;;;3.75;2.67;;;;;;;12.31;89.23;99706.16;5284072;28;20039;-74
2024/03/03 03:09:44;;;;;;;4.15;2.53;;;;;;;12.35;90.10;99710.09;5285088;28;20035;-74
2024/03/03 03:12:16;;;;;;;4.05;2.53;;;;;;;12.26;89.56;99702.38;5284027;28;20031;-74
2024/03/03 03:14:48;;;;;;;3.20;2.40;;;;;;;12.20;91.33;99703.91;5284994;28;20041;-74
2024/03/03 03:17:20;;;;;;;3.55;2.70;;;;;;;12.12;90.58;99702.13;5283927;28;20520;-74
2024/03/03 03:19:52;;;;;;;3.80;2.60;;;;;;;12.11;90.38;99697.00;5282993;28;20149;-74
2024/03/03 03:22:24;;;;;;;3.67;2.83;;;;;;;12.12;90.83;99706.50;5281620;28;20198;-74
2024/03/03 03:24:56;;;;;;;3.28;2.45;;;;;;;12.09;93.00;99704.25;5281378;28;20035;-73
2024/03/03 03:27:28;;;;;;;4.10;2.88;;;;;;;12.04;92.73;99698.66;5275916;28;20029;-74
2024/03/03 03:30:00;;;;;;;5.63;2.53;;;;;;;12.01;91.52;99693.75;5281498;28;20058;-74
2024/03/03 03:32:32;;;;;;;4.10;2.80;;;;;;;12.01;91.71;99705.09;5285407;28;20032;-73
2024/03/03 03:35:04;;;;;;;4.78;2.50;;;;;;;11.98;92.09;99701.97;5284952;28;20032;-74
2024/03/03 03:37:37;;;;;;;3.67;2.45;;;;;;;11.91;92.28;99689.50;5284911;28;20020;-74
2024/03/03 03:40:09;;;;;;;4.63;3.20;;;;;;;11.97;92.01;99700.31;5278564;28;20035;-74
2024/03/03 03:42:41;;;;;;;4.38;2.67;;;;;;;11.92;92.68;99700.81;5283768;28;20036;-74
2024/03/03 03:45:14;;;;;;;3.50;2.50;;;;;;;11.88;92.22;99699.53;5283551;28;20030;-74
2024/03/03 03:47:46;;;;;;;4.30;2.75;;;;;;;11.88;92.43;99699.53;5285496;28;20448;-74
2024/03/03 03:50:18;;;;;;;4.45;2.65;;;;;;;11.81;94.18;99703.75;5285331;28;20042;-73
2024/03/03 03:52:50;;;;;;;3.25;2.55;;;;;;;11.82;93.22;99708.84;5282264;28;20092;-74
2024/03/03 03:55:22;;;;;;;3.95;2.78;;;;;;;11.77;94.21;99708.53;5284740;28;20430;-74
2024/03/03 03:57:53;;;;;;;3.70;2.90;;;;;;;11.79;93.57;99711.81;5284143;28;20054;-74
2024/03/03 04:00:25;;;;;;;4.55;2.60;;;;;;;11.74;94.38;99711.47;5282015;28;20047;-73
2024/03/03 04:02:57;;;;;;;4.75;3.28;;;;;;;11.75;94.61;99714.94;5282112;28;20028;-74
2024/03/03 04:05:29;;;;;;;4.00;2.72;;;;;;;11.76;95.01;99717.38;5282791;28;20028;-74
2024/03/03 04:08:01;;;;;;;4.47;3.03;;;;;;;11.79;94.27;99718.88;5284016;28;20034;-74
2024/03/03 04:10:33;;;;;;;4.07;3.03;;;;;;;11.81;94.35;99722.13;5284812;28;20046;-74
2024/03/03 04:13:05;;;;;;;3.90;2.53;;;;;;;11.87;93.32;99718.88;5287208;28;20587;-74
2024/03/03 04:15:37;;;;;;;3.42;2.65;;;;;;;11.77;94.67;99719.00;5288007;28;20053;-74
2024/03/03 04:18:09;;;;;;;3.60;2.53;;;;;;;11.78;94.80;99723.28;5284010;28;20028;-74
2024/03/03 04:20:40;;;;;;;3.40;2.45;;;;;;;11.72;97.25;99731.00;5289044;28;20032;-73
2024/03/03 04:23:12;;;;;;;4.28;3.20;;;;;;;11.72;97.09;99731.81;5287462;28;20059;-74
2024/03/03 04:25:44;;;;;;;4.50;2.90;;;;;;;11.73;98.49;99736.06;5270260;28;20058;-74
2024/03/03 04:28:16;;;;;;;4.15;3.25;;;;;;;11.76;95.92;99738.38;5286586;28;20036;-74
2024/03/03 04:30:48;;;;;;;4.80;3.15;;;;;;;11.71;95.94;99730.19;5288888;28;20029;-73
2024/03/03 04:33:20;;;;;;;3.65;2.83;;;;;;;11.79;95.33;99735.44;5287785;28;20988;-74
2024/03/03 04:35:52;;;;;;;4.10;2.85;;;;;;;11.80;96.07;99744.13;5287664;28;20118;-74
2024/03/03 04:38:25;;;;;;;3.67;2.72;;;;;;;11.80;96.53;99746.75;5287388;28;20081;-73
2024/03/03 04:40:56;;;;;;;5.97;3.63;;;;;;;11.84;95.36;99745.44;5285184;28;20046;-74
2024/03/03 04:43:28;;;;;;;3.60;2.80;;;;;;;11.83;95.01;99744.63;5286161;28;20798;-74
2024/03/03 04:46:00;;;;;;;5.07;3.38;;;;;;;11.77;95.47;99740.00;5288812;28;21278;-74
2024/03/03 04:48:32;;;;;;;4.82;3.17;;;;;;;11.78;95.50;99752.16;5285430;28;20123;-74
2024/03/03 04:51:05;;;;;;;4.43;3.10;;;;;;;11.78;95.95;99752.16;5285093;28;20032;-74
2024/03/03 04:53:37;;;;;;;4.97;3.15;;;;;;;11.79;96.39;99745.91;5288622;28;20591;-74
2024/03/03 04:56:08;;;;;;;5.55;3.03;;;;;;;11.77;95.58;99749.69;5287232;28;20036;-74
2024/03/03 04:58:40;;;;;;;5.05;3.28;;;;;;;11.84;95.52;99767.25;5286190;28;20020;-74
2024/03/03 05:01:12;;;;;;;4.55;3.08;;;;;;;11.87;95.04;99768.75;5287059;28;20482;-74
2024/03/03 05:03:45;;;;;;;4.88;3.10;;;;;;;11.88;94.69;99770.38;5286410;28;20043;-74
2024/03/03 05:06:17;;;;;;;4.95;3.30;;;;;;;11.91;96.59;99776.13;5288187;28;20039;-74
2024/03/03 05:08:49;;;;;;;6.67;3.80;;;;;;;11.92;94.62;99774.31;5281533;28;20038;-74
2024/03/03 05:11:22;;;;;;;6.13;3.33;;;;;;;11.92;94.65;99777.75;5284904;28;20040;-74
2024/03/03 05:13:54;;;;;;;6.50;3.88;;;;;;;11.89;93.96;99779.88;5268094;28;20044;-74
2024/03/03 05:16:25;;;;;;;7.05;3.88;;;;;;;11.85;94.96;99773.31;5287055;28;20496;-74
2024/03/03 05:18:57;;;;;;;7.50;4.22;;;;;;;11.85;95.02;99773.31;5282838;28;20815;-74
2024/03/03 05:21:29;;;;;;;5.68;4.25;;;;;;;11.88;95.32;99773.00;5284784;28;20044;-74
2024/03/03 05:24:01;;;;;;;5.32;3.92;;;;;;;11.86;96.07;99781.06;5288569;28;20116;-73
2024/03/03 05:26:33;;;;;;;7.00;4.28;;;;;;;11.83;95.78;99776.13;5287051;28;20035;-74
2024/03/03 05:29:05;;;;;;;8.55;4.32;;;;;;;11.81;95.96;99782.47;5285055;28;20111;-74
2024/03/03 05:31:42;;;;;;;4.85;4.18;;;;;;;11.89;95.90;99793.84;5286809;28;20035;-74
2024/03/03 05:34:15;;;;;;;6.43;4.60;;;;;;;11.77;96.95;99789.88;5286829;28;20059;-74
2024/03/03 05:36:47;;;;;;;7.05;4.47;;;;;;;11.78;98.51;99794.16;5278691;28;20028;-74
2024/03/03 05:39:21;;;;;;;5.75;4.97;;;;;;;11.78;97.50;99794.16;5285279;28;20432;-74
2024/03/03 05:41:53;;;;;;;6.22;4.50;;;;;;;11.75;98.36;99802.34;5284915;28;20027;-73
2024/03/03 05:44:25;;;;;;;7.97;5.10;;;;;;;11.77;97.75;99799.53;5286469;28;20028;-74
2024/03/03 05:46:57;;;;;;;6.28;4.70;;;;;;;11.76;100.00;99801.34;5284542;28;20036;-74
2024/03/03 05:49:29;;;;;;;5.97;5.00;;;;;;;11.74;99.88;99798.06;5286268;28;20045;-74
2024/03/03 05:52:01;;;;;;;7.68;5.03;;;;;;;11.83;97.30;99807.63;5287112;28;20036;-74
2024/03/03 05:54:33;;;;;;;7.38;4.68;;;;;;;11.74;98.32;99798.06;5281991;28;20066;-73
2024/03/03 05:57:05;;;;;;;6.20;5.15;;;;;;;11.81;98.04;99817.41;5283002;28;20048;-74
2024/03/03 05:59:37;;;;;;;6.35;4.95;;;;;;;11.78;98.96;99823.00;5283237;28;20087;-74
2024/03/03 06:02:08;;;;;;;7.45;5.63;;;;;;;11.83;98.49;99827.75;5286127;28;20028;-74
2024/03/03 06:04:40;;;;;;;7.53;5.30;;;;;;;11.84;98.27;99822.38;5286208;28;20112;-74
2024/03/03 06:07:13;;;;;;;6.93;5.57;;;;;;;11.84;98.14;99811.88;5284196;28;20062;-74
2024/03/03 06:09:45;;;;;;;7.50;5.30;;;;;;;11.87;97.54;99814.19;5281870;28;20035;-74
2024/03/03 06:12:16;;;;;;;6.90;5.57;;;;;;;11.88;98.52;99817.63;5284955;28;20632;-74
2024/03/03 06:14:49;;;;;;;7.20;5.65;;;;;;;11.88;97.83;99807.94;5285519;28;20038;-74
2024/03/03 06:17:21;;;;;;;6.78;5.43;;;;;;;11.87;98.75;99821.22;5284901;28;20028;-73
2024/03/03 06:19:53;;;;;;;7.10;5.80;;;;;;;11.88;98.86;99815.00;5285535;28;20035;-74
2024/03/03 06:22:25;;;;;;;6.72;5.40;;;;;;;11.87;98.62;99816.81;5283815;28;20591;-74
2024/03/03 06:24:57;;;;;;;9.82;5.72;;;;;;;11.85;97.97;99826.63;5285142;28;20032;-74
2024/03/03 06:27:29;;;;;;;8.95;5.72;;;;;;;11.84;98.26;99825.00;5285098;28;20041;-74
2024/03/03 06:30:01;;;;;;;7.28;5.70;;;;;;;11.85;98.58;99831.88;5284947;28;20040;-74
2024/03/03 06:32:33;;;;;;;7.63;5.30;;;;;;;11.86;99.60;99849.28;5284661;28;20048;-74
2024/03/03 06:35:05;;;;;;;7.22;5.45;;;;;;;11.83;98.69;99836.50;5285487;28;20670;-74
2024/03/03 06:37:37;;;;;;;9.15;6.00;;;;;;;11.92;99.22;99851.25;5282536;28;20427;-74
2024/03/03 06:40:09;;;;;;;6.70;6.00;;;;;;;11.97;98.58;99855.19;5281156;28;20648;-74
2024/03/03 06:42:41;;;;;;;8.85;6.22;;;;;;;11.98;99.45;99851.59;5283834;28;20044;-74
2024/03/03 06:45:13;;;;;;;8.25;5.53;;;;;;;11.94;99.62;99861.59;5286210;28;20028;-74
2024/03/03 06:47:45;;;;;;;7.07;5.20;;;;;;;11.99;98.59;99866.34;5286052;28;20694;-73
2024/03/03 06:50:17;;;;;;;7.63;5.88;;;;;;;11.99;98.52;99876.84;5281633;28;20043;-74
2024/03/03 06:52:49;;;;;;;8.65;6.38;;;;;;;12.03;99.14;99867.66;5283756;28;20085;-74
2024/03/03 06:55:21;;;;;;;8.63;6.38;;;;;;;12.05;99.95;99873.59;5286742;28;20028;-74
2024/03/03 06:57:53;;;;;;;7.15;5.88;;;;;;;12.11;97.70;99880.78;5285485;28;20063;-74
2024/03/03 07:00:25;;;;;;;7.88;5.93;;;;;;;12.07;99.35;99890.78;5283648;28;20037;-74
2024/03/03 07:03:04;;;;;;;7.93;6.22;;;;;;;12.11;99.45;99899.16;5285158;28;20054;-74
2024/03/03 07:05:36;;;;;;;7.20;6.32;;;;;;;12.15;98.74;99905.72;5284920;28;20031;-74
2024/03/03 07:08:08;;;;;;;8.80;5.63;;;;;;;12.07;100.00;99905.72;5285842;28;20032;-74
2024/03/03 07:10:40;;;;;;;7.43;6.18;;;;;;;12.06;100.00;99906.72;5286052;28;20032;-74
2024/03/03 07:13:13;;;;;;;8.55;5.72;;;;;;;12.08;100.00;99904.75;5288417;28;20050;-74
2024/03/03 07:15:45;;;;;;;7.25;6.07;;;;;;;12.13;100.00;99905.09;5286574;28;20043;-74
2024/03/03 07:18:17;;;;;;;10.30;7.15;;;;;;;12.11;100.00;99914.91;5287226;28;20185;-73
2024/03/03 07:20:48;;;;;;;8.55;6.28;;;;;;;12.13;100.00;99905.09;5284168;28;20024;-74
2024/03/03 07:23:20;;;;;;;9.05;6.22;;;;;;;12.16;100.00;99904.78;5282346;28;20036;-74
2024/03/03 07:25:53;;;;;;;7.30;6.38;;;;;;;12.14;100.00;99914.59;5285014;28;20086;-74
2024/03/03 07:28:25;;;;;;;8.90;6.50;;;;;;;12.20;100.00;99928.88;5284152;28;20043;-74
2024/03/03 07:30:57;;;;;;;8.02;6.43;;;;;;;12.17;100.00;99922.16;5284508;28;20759;-74
2024/03/03 07:33:30;;;;;;;9.25;6.70;;;;;;;12.18;100.00;99915.91;5282714;28;20090;-74
2024/03/03 07:36:02;;;;;;;7.55;6.57;;;;;;;12.22;100.00;99922.47;5283597;28;20039;-74
2024/03/03 07:38:34;;;;;;;8.60;7.00;;;;;;;12.18;100.00;99921.16;5282992;28;20040;-74
2024/03/03 07:41:06;;;;;;;9.00;6.32;;;;;;;12.24;100.00;99915.28;5288132;28;21158;-74
2024/03/03 07:43:38;;;;;;;9.35;6.78;;;;;;;12.26;100.00;99912.47;5285070;28;20032;-74
2024/03/03 07:46:10;;;;;;;8.63;6.75;;;;;;;12.32;100.00;99904.78;5287208;28;20035;-73
2024/03/03 07:48:44;;;;;;;8.05;6.25;;;;;;;12.37;100.00;99896.38;5288375;28;20044;-74
2024/03/03 07:51:19;;;;;;;8.50;6.20;;;;;;;12.43;100.00;99889.66;5289810;28;20020;-74
2024/03/03 07:53:51;;;;;;;8.30;5.82;;;;;;;12.46;100.00;99879.63;5290762;28;20035;-74
2024/03/03 07:56:23;;;;;;;7.85;5.80;;;;;;;12.49;100.00;99878.47;5286151;28;20051;-74
2024/03/03 07:58:55;;;;;;;7.75;6.05;;;;;;;12.54;100.00;99878.78;5285625;28;20028;-75
2024/03/03 08:01:32;;;;;;;8.00;5.68;;;;;;;12.55;100.00;99869.94;5287152;28;20493;-74
2024/03/03 08:04:06;;;;;;;7.75;5.97;;;;;;;12.54;100.00;99865.66;5281837;28;20032;-74
2024/03/03 08:06:38;;;;;;;8.77;6.30;;;;;;;12.59;100.00;99866.81;5288710;28;20036;-74
2024/03/03 08:09:11;;;;;;;7.60;6.25;;;;;;;12.58;100.00;99874.88;5290992;28;21265;-74
2024/03/03 08:11:43;;;;;;;14.48;5.47;;;;;;;12.70;100.00;99870.91;5291219;28;20027;-74
2024/03/03 08:14:15;;;;;;;8.50;5.85;;;;;;;12.71;100.00;99887.50;5287222;28;20032;-74
2024/03/03 08:16:47;;;;;;;7.15;6.05;;;;;;;12.72;100.00;99887.31;5285899;28;20111;-74
2024/03/03 08:19:19;;;;;;;9.07;6.00;;;;;;;12.71;100.00;99901.44;5269901;28;20036;-74
2024/03/03 08:21:50;;;;;;;7.53;5.82;;;;;;;12.70;100.00;99907.69;5288896;28;20050;-74
2024/03/03 08:24:22;;;;;;;7.07;5.70;;;;;;;12.65;100.00;99896.84;5285502;28;20036;-73
2024/03/03 08:26:54;;;;;;;7.93;6.03;;;;;;;12.74;100.00;99914.25;5273918;28;20051;-75
2024/03/03 08:29:26;;;;;;;8.55;6.55;;;;;;;12.73;100.00;99923.13;5288137;28;20486;-74
2024/03/03 08:31:58;;;;;;;7.25;5.88;;;;;;;12.77;100.00;99937.59;5288417;28;20760;-75
2024/03/03 08:34:30;;;;;;;6.88;5.65;;;;;;;12.78;100.00;99935.78;5289150;28;20027;-74
2024/03/03 08:37:02;;;;;;;7.95;5.47;;;;;;;12.80;100.00;99937.22;5286668;28;20034;-74
2024/03/03 08:39:34;;;;;;;8.27;5.80;;;;;;;12.78;100.00;99933.16;5287867;28;20050;-74
2024/03/03 08:42:06;;;;;;;7.47;5.35;;;;;;;12.76;100.00;99919.34;5291081;28;20031;-74
2024/03/03 08:44:38;;;;;;;6.93;4.93;;;;;;;12.83;100.00;99943.97;5289070;28;20030;-74
2024/03/03 08:47:10;;;;;;;7.20;5.38;;;;;;;12.82;100.00;99945.78;5288138;28;20036;-76
2024/03/03 08:49:42;;;;;;;9.45;5.93;;;;;;;12.81;100.00;99935.44;5287078;28;20040;-74
2024/03/03 08:52:14;;;;;;;8.32;5.88;;;;;;;12.87;100.00;99922.44;5288197;28;20035;-74
2024/03/03 08:54:46;;;;;;;6.68;5.13;;;;;;;12.93;100.00;99935.91;5281554;28;20795;-74
2024/03/03 08:57:18;;;;;;;7.15;6.00;;;;;;;12.93;100.00;99930.66;5285851;28;20049;-75
2024/03/03 08:59:50;;;;;;;7.25;4.97;;;;;;;12.97;100.00;99924.88;5287825;28;20032;-75
2024/03/03 09:02:22;;;;;;;6.88;5.22;;;;;;;13.00;100.00;99927.19;5287339;28;20036;-75
2024/03/03 09:04:56;;;;;;;6.80;5.35;;;;;;;13.10;100.00;99937.50;5282301;28;20039;-74
2024/03/03 09:07:28;;;;;;;8.07;5.50;;;;;;;13.22;100.00;99945.84;5283123;28;20039;-74
2024/03/03 09:10:00;;;;;;;7.75;5.10;;;;;;;13.29;100.00;99941.59;5283324;28;20028;-75
2024/03/03 09:12:32;;;;;;;6.97;5.32;;;;;;;13.24;100.00;99957.88;5287161;28;20028;-75
2024/03/03 09:15:06;;;;;;;5.55;4.50;;;;;;;13.27;100.00;99964.63;5285655;28;20051;-75
2024/03/03 09:17:38;;;;;;;;;;;;;;;13.96;100.00;99965.63;5284713;28;20040;-74
2024/03/03 09:20:10;;;;;;;6.13;4.22;;;;;;;13.42;100.00;99956.84;5287991;28;19930;-74
2024/03/03 09:22:42;;;;;;;5.43;3.90;;;;;;;13.53;100.00;99972.25;5281177;28;20044;-75
2024/03/03 09:25:18;;;;;;;6.93;3.92;;;;;;;13.57;100.00;99969.13;5284214;28;20040;-74
2024/03/03 09:27:50;;;;;;;6.72;4.20;;;;;;;13.62;100.00;99965.97;5286188;28;20757;-75
2024/03/03 09:30:22;;;;;;;6.05;3.88;;;;;;;13.71;100.00;99967.56;5281606;28;20042;-75
2024/03/03 09:32:54;;;;;;;6.88;4.00;;;;;;;13.81;100.00;99962.91;5284332;28;20036;-75
2024/03/03 09:35:26;;;;;;;7.32;4.10;;;;;;;13.90;100.00;99962.84;5284271;28;20103;-74
2024/03/03 09:37:58;;;;;;;5.70;3.70;;;;;;;13.95;100.00;99965.81;5286218;28;20032;-75
2024/03/03 09:40:33;;;;;;;6.43;3.75;;;;;;;14.07;100.00;99967.06;5283232;28;20131;-75
2024/03/03 09:43:08;;;;;;;5.40;4.15;;;;;;;14.13;100.00;99969.00;5284023;28;20401;-74
2024/03/03 09:45:40;;;;;;;6.30;3.63;;;;;;;14.21;100.00;99960.22;5286753;28;20378;-75
2024/03/03 09:48:13;;;;;;;5.20;3.60;;;;;;;14.25;99.72;99962.31;5286909;28;20115;-74
2024/03/03 09:50:45;;;;;;;9.32;4.00;;;;;;;14.22;94.47;99940.78;5286963;28;20040;-75
2024/03/03 09:53:18;;;;;;;5.07;3.50;;;;;;;14.35;95.98;99946.25;5283082;28;20052;-74
2024/03/03 09:55:53;;;;;;;4.97;3.45;;;;;;;14.46;95.68;99945.84;5284128;28;20375;-75
2024/03/03 09:58:25;;;;;;;4.70;3.47;;;;;;;14.42;92.96;99954.28;5284838;28;20040;-75
2024/03/03 10:00:59;;;;;;;5.00;3.58;;;;;;;14.53;95.76;99948.63;5285119;28;20048;-75
2024/03/03 10:03:32;;;;;;;5.15;3.28;;;;;;;14.46;92.43;99942.41;5284402;28;20043;-75
2024/03/03 10:06:09;;;;;;;3.67;2.80;;;;;;;14.63;84.55;99945.75;5285178;28;20040;-75
2024/03/03 10:08:41;;;;;;;3.67;2.50;;;;;;;14.60;90.19;99936.38;5283478;28;20031;-75
2024/03/03 10:11:18;;;;;;;5.70;2.65;;;;;;;14.81;89.39;99938.31;5285856;28;20035;-74
2024/03/03 10:13:50;;;;;;;4.18;2.60;;;;;;;14.69;83.24;99947.66;5281676;28;20046;-75
2024/03/03 10:16:23;;;;;;;6.10;2.95;;;;;;;14.77;87.56;99947.59;5286861;28;20028;-75
2024/03/03 10:18:59;;;;;;;4.05;2.90;;;;;;;14.92;87.95;99950.25;5283173;28;20462;-75
2024/03/03 10:21:35;;;;;;;8.02;3.88;;;;;;;14.82;87.41;99951.34;5281966;28;20035;-76
2024/03/03 10:24:26;;;;;;;5.63;3.83;;;;;;;15.03;89.14;99950.63;5281716;28;20031;-76
2024/03/03 10:27:00;;;;;;;7.05;4.43;;;;;;;14.87;87.55;99963.16;5284543;28;20039;-74
2024/03/03 10:29:32;;;;;;;6.43;5.05;;;;;;;14.94;89.93;99949.06;5283335;28;20719;-74
2024/03/03 10:32:08;;;;;;;10.05;5.72;;;;;;;15.04;92.25;99956.75;5281057;28;20097;-76
2024/03/03 10:34:42;;;;;;;8.20;6.03;;;;;;;14.94;94.42;99956.16;5283060;28;20032;-74
2024/03/03 10:37:15;;;;;;;7.00;5.22;;;;;;;14.93;86.61;99963.28;5283315;28;20027;-75
2024/03/03 10:39:49;;;;;;;6.97;5.30;;;;;;;15.05;89.96;99958.38;5281950;28;20044;-75
2024/03/03 10:42:22;;;;;;;7.13;5.82;;;;;;;14.94;91.67;99959.63;5283743;28;20027;-75
2024/03/03 10:44:53;;;;;;;8.30;5.93;;;;;;;14.95;84.46;99955.16;5284736;28;20039;-74
2024/03/03 10:47:25;;;;;;;8.45;5.65;;;;;;;14.92;84.39;99953.69;5283233;28;20031;-74
2024/03/03 10:49:57;;;;;;;8.07;5.00;;;;;;;15.00;84.29;99956.28;5278524;28;20121;-75
2024/03/03 10:52:30;;;;;;;8.35;5.35;;;;;;;15.10;80.00;99961.28;5285293;28;20047;-75
2024/03/03 10:55:04;;;;;;;7.82;5.45;;;;;;;15.21;79.95;99963.47;5283190;28;20035;-75
2024/03/03 10:57:36;;;;;;;7.35;5.18;;;;;;;15.31;80.29;99963.19;5286144;28;20048;-75
2024/03/03 11:00:14;;;;;;;8.33;4.90;;;;;;;15.42;84.03;99968.03;5284683;28;20138;-75
2024/03/03 11:02:47;;;;;;;6.07;5.07;;;;;;;15.48;79.06;99971.75;5282326;28;20297;-75
2024/03/03 11:05:19;;;;;;;;;;;;;;;16.22;74.63;99969.78;5282356;28;20588;-74
2024/03/03 11:07:52;;;;;;;6.88;4.35;;;;;;;15.68;79.02;99966.72;5282159;28;19924;-75
2024/03/03 11:10:25;;;;;;;7.57;5.00;;;;;;;15.77;78.63;99973.56;5277970;28;20040;-75
2024/03/03 11:12:58;;;;;;;8.77;5.15;;;;;;;15.95;74.28;99968.69;5283037;28;20059;-75
2024/03/03 11:15:35;;;;;;;6.32;4.47;;;;;;;16.19;71.58;99966.69;5261731;28;20047;-75
2024/03/03 11:18:15;;;;;;;5.78;4.43;;;;;;;16.34;72.00;99967.47;5277663;28;20039;-75
2024/03/03 11:20:53;;;;;;;7.63;4.38;;;;;;;16.43;72.10;99970.78;5287791;28;20039;-75
2024/03/03 11:23:35;;;;;;;6.75;4.47;;;;;;;16.53;71.83;99969.47;5290622;28;20043;-76
2024/03/03 11:26:13;;;;;;;6.45;3.72;;;;;;;16.48;67.54;99955.19;5289368;28;20043;-75
2024/03/03 11:28:52;;;;;;;4.45;2.72;;;;;;;16.33;66.88;99957.91;5286541;28;20040;-77
2024/03/03 11:31:24;;;;;;;3.30;2.55;;;;;;;16.28;62.75;99966.38;5290783;28;20047;-75
2024/03/03 11:33:58;;;;;;;5.80;2.80;;;;;;;16.37;61.67;99958.34;5287956;28;20032;-77
2024/03/03 11:36:31;;;;;;;3.80;2.50;;;;;;;16.29;61.63;99954.81;5290773;28;20032;-76
2024/03/03 11:39:13;;;;;;;4.25;2.97;;;;;;;16.60;63.98;99948.38;5289516;28;20040;-78
2024/03/03 11:41:45;;;;;;;4.18;2.65;;;;;;;16.58;63.55;99947.72;5287915;28;20032;-75
2024/03/03 11:44:48;;;;;;;5.60;2.30;;;;;;;17.02;65.82;99949.31;5289471;28;20039;-76
2024/03/03 11:47:24;;;;;;;4.47;2.07;;;;;;;16.90;63.97;99945.56;5280582;28;20048;-77
2024/03/03 11:49:59;;;;;;;2.45;1.60;;;;;;;17.02;61.92;99942.19;5286679;28;20039;-75
2024/03/03 11:52:41;;;;;;;2.90;1.83;;;;;;;17.17;62.36;99942.06;5289288;28;20054;-77
2024/03/03 11:55:21;;;;;;;3.65;2.47;;;;;;;17.15;59.37;99949.38;5289245;28;20035;-78
2024/03/03 11:57:58;;;;;;;3.72;2.03;;;;;;;17.36;59.38;99943.19;5288676;28;20043;-77